createdAt,value
2018-02-14T00:01:22.118Z,59.32
2018-02-14T00:03:50.501Z,59.05
2018-02-14T00:06:19.078Z,59.19
2018-02-14T00:08:48.131Z,59.64
2018-02-14T00:11:17.095Z,59.63
2018-02-14T00:13:46.794Z,58.98
2018-02-14T00:16:15.830Z,58.91
2018-02-14T00:18:44.666Z,58.52
2018-02-14T00:21:13.570Z,58.02
2018-02-14T00:23:42.473Z,58.35
2018-02-14T00:26:10.954Z,58.52
2018-02-14T00:28:40.517Z,58.27
2018-02-14T00:31:14.684Z,58.60
2018-02-14T00:33:43.553Z,58.27
2018-02-14T00:36:12.422Z,58.30
2018-02-14T00:38:41.469Z,58.29
2018-02-14T00:41:11.282Z,58.21
2018-02-14T00:43:40.862Z,58.50
2018-02-14T00:46:09.475Z,58.67
2018-02-14T00:48:38.857Z,58.36
2018-02-14T00:51:07.749Z,58.46
2018-02-14T00:53:36.537Z,58.50
2018-02-14T00:56:06.480Z,58.52
2018-02-14T00:58:35.334Z,58.49
2018-02-14T01:01:05.652Z,58.60
2018-02-14T01:03:35.115Z,58.59
2018-02-14T01:06:04.030Z,58.54
2018-02-14T01:08:34.080Z,58.95
2018-02-14T01:11:02.462Z,58.56
2018-02-14T01:13:32.115Z,58.92
2018-02-14T01:16:01.140Z,58.87
2018-02-14T01:18:29.962Z,58.88
2018-02-14T01:20:59.446Z,59.06
2018-02-14T01:23:28.769Z,59.47
2018-02-14T01:25:58.932Z,59.09
2018-02-14T01:28:27.694Z,59.25
2018-02-14T01:30:57.480Z,59.66
2018-02-14T01:33:26.634Z,59.33
2018-02-14T01:35:55.355Z,59.56
2018-02-14T01:38:24.322Z,59.87
2018-02-14T01:40:53.703Z,59.55
2018-02-14T01:43:22.923Z,59.09
2018-02-14T01:45:51.796Z,59.89
2018-02-14T01:48:20.619Z,59.52
2018-02-14T01:50:50.681Z,59.69
2018-02-14T01:53:21.212Z,59.95
2018-02-14T01:55:50.477Z,59.59
2018-02-14T01:58:19.342Z,59.49
2018-02-14T02:00:48.983Z,59.37
2018-02-14T02:03:17.467Z,59.20
2018-02-14T02:05:46.262Z,59.17
2018-02-14T02:08:16.137Z,60.07
2018-02-14T02:10:44.858Z,60.12
2018-02-14T02:13:14.463Z,59.96
2018-02-14T02:15:43.455Z,59.94
2018-02-14T02:18:12.153Z,59.47
2018-02-14T02:20:40.840Z,59.60
2018-02-14T02:23:09.386Z,60.23
2018-02-14T02:25:38.239Z,60.00
2018-02-14T02:28:07.259Z,59.86
2018-02-14T02:30:36.926Z,60.17
2018-02-14T02:33:05.355Z,59.83
2018-02-14T02:35:34.243Z,59.83
2018-02-14T02:38:03.044Z,59.88
2018-02-14T02:40:32.574Z,59.90
2018-02-14T02:43:01.020Z,60.38
2018-02-14T02:45:30.194Z,60.75
2018-02-14T02:47:59.040Z,60.80
2018-02-14T02:50:27.820Z,60.23
2018-02-14T02:52:56.574Z,60.21
2018-02-14T02:55:25.590Z,60.07
2018-02-14T02:57:54.251Z,60.52
2018-02-14T03:00:23.319Z,60.05
2018-02-14T03:02:51.978Z,59.84
2018-02-14T03:05:20.688Z,60.24
2018-02-14T03:07:49.556Z,60.45
2018-02-14T03:10:18.278Z,60.58
2018-02-14T03:12:46.813Z,60.75
2018-02-14T03:15:15.292Z,60.55
2018-02-14T03:17:44.605Z,60.41
2018-02-14T03:20:13.550Z,60.31
2018-02-14T03:22:42.430Z,60.24
2018-02-14T03:25:11.385Z,60.73
2018-02-14T03:27:40.094Z,60.26
2018-02-14T03:30:08.811Z,60.92
2018-02-14T03:32:38.170Z,60.06
2018-02-14T03:35:07.440Z,59.78
2018-02-14T03:37:36.069Z,60.68
2018-02-14T03:40:04.998Z,60.14
2018-02-14T03:42:33.545Z,59.84
2018-02-14T03:45:02.200Z,60.03
2018-02-14T03:47:31.159Z,60.09
2018-02-14T03:50:00.096Z,60.76
2018-02-14T03:52:29.327Z,60.30
2018-02-14T03:54:59.804Z,60.09
2018-02-14T03:57:28.646Z,60.44
2018-02-14T03:59:57.391Z,60.62
2018-02-14T04:02:27.045Z,60.87
2018-02-14T04:04:55.761Z,61.85
2018-02-14T04:07:25.469Z,61.56
2018-02-14T04:09:55.701Z,60.90
2018-02-14T04:12:27.684Z,60.81
2018-02-14T04:14:56.270Z,60.92
2018-02-14T04:17:25.326Z,60.77
2018-02-14T04:19:54.446Z,60.92
2018-02-14T04:22:23.798Z,60.81
2018-02-14T04:24:52.882Z,60.57
2018-02-14T04:27:21.535Z,60.18
2018-02-14T04:29:50.097Z,60.44
2018-02-14T04:32:18.712Z,60.21
2018-02-14T04:34:47.804Z,60.19
2018-02-14T04:37:16.466Z,60.67
2018-02-14T04:39:45.632Z,60.15
2018-02-14T04:42:14.513Z,59.47
2018-02-14T04:44:43.989Z,59.49
2018-02-14T04:47:12.950Z,59.98
2018-02-14T04:49:42.656Z,60.10
2018-02-14T04:52:11.584Z,59.82
2018-02-14T04:54:40.584Z,59.82
2018-02-14T04:57:09.095Z,59.84
2018-02-14T04:59:38.706Z,59.90
2018-02-14T05:02:08.367Z,59.74
2018-02-14T05:04:36.993Z,60.02
2018-02-14T05:07:05.544Z,60.08
2018-02-14T05:09:34.566Z,59.98
2018-02-14T05:12:03.167Z,60.17
2018-02-14T05:14:31.645Z,60.09
2018-02-14T05:17:00.555Z,60.06
2018-02-14T05:19:29.755Z,61.01
2018-02-14T05:21:59.690Z,60.18
2018-02-14T05:24:28.550Z,60.41
2018-02-14T05:26:57.972Z,61.39
2018-02-14T05:29:26.864Z,60.60
2018-02-14T05:31:55.511Z,60.44
2018-02-14T05:34:24.337Z,60.40
2018-02-14T05:36:52.802Z,60.19
2018-02-14T05:39:21.805Z,60.49
2018-02-14T05:41:52.130Z,60.21
2018-02-14T05:44:21.433Z,60.27
2018-02-14T05:46:49.962Z,60.04
2018-02-14T05:49:19.693Z,60.29
2018-02-14T05:51:49.135Z,60.30
2018-02-14T05:54:18.998Z,60.59
2018-02-14T05:56:47.957Z,60.77
2018-02-14T05:59:16.576Z,60.43
2018-02-14T06:01:45.398Z,60.46
2018-02-14T06:04:14.647Z,60.36
2018-02-14T06:06:44.209Z,60.80
2018-02-14T06:09:13.617Z,60.74
2018-02-14T06:11:42.037Z,60.47
2018-02-14T06:14:12.568Z,61.14
2018-02-14T06:16:41.350Z,61.10
2018-02-14T06:19:10.496Z,61.42
2018-02-14T06:21:39.896Z,61.19
2018-02-14T06:24:08.456Z,61.11
2018-02-14T06:26:37.277Z,60.88
2018-02-14T06:29:06.788Z,61.78
2018-02-14T06:31:36.362Z,62.29
2018-02-14T06:34:05.071Z,62.06
2018-02-14T06:36:35.242Z,63.10
2018-02-14T06:39:04.720Z,62.45
2018-02-14T06:41:34.365Z,63.05
2018-02-14T06:44:04.979Z,63.97
2018-02-14T06:46:35.083Z,63.19
2018-02-14T06:49:04.580Z,63.00
2018-02-14T06:51:33.345Z,62.94
2018-02-14T06:54:02.015Z,62.17
2018-02-14T06:56:30.956Z,62.43
2018-02-14T06:58:59.906Z,62.88
2018-02-14T07:01:28.783Z,62.67
2018-02-14T07:03:58.295Z,62.81
2018-02-14T07:06:27.150Z,64.78
2018-02-14T07:08:56.242Z,64.41
2018-02-14T07:11:24.854Z,62.27
2018-02-14T07:13:54.464Z,63.03
2018-02-14T07:16:23.646Z,66.27
2018-02-14T07:18:52.554Z,66.00
2018-02-14T07:21:22.774Z,66.26
2018-02-14T07:23:51.753Z,67.47
2018-02-14T07:26:20.796Z,64.63
2018-02-14T07:28:49.946Z,64.82
2018-02-14T07:31:18.554Z,64.01
2018-02-14T07:33:47.551Z,64.21
2018-02-14T07:36:16.416Z,64.72
2018-02-14T07:38:44.960Z,63.31
2018-02-14T07:41:15.224Z,63.14
2018-02-14T07:43:44.045Z,63.79
2018-02-14T07:46:13.221Z,63.79
2018-02-14T07:48:42.390Z,63.38
2018-02-14T07:51:11.083Z,62.31
2018-02-14T07:53:39.804Z,63.31
2018-02-14T07:56:09.380Z,62.03
2018-02-14T07:58:39.648Z,62.20
2018-02-14T08:01:09.497Z,61.47
2018-02-14T08:03:38.413Z,60.55
2018-02-14T08:06:07.376Z,62.59
2018-02-14T08:08:36.235Z,60.28
2018-02-14T08:11:05.319Z,60.30
2018-02-14T08:13:33.945Z,60.13
2018-02-14T08:16:02.962Z,62.06
2018-02-14T08:18:32.712Z,61.09
2018-02-14T08:21:02.439Z,61.71
2018-02-14T08:23:31.153Z,61.88
2018-02-14T08:26:00.418Z,61.24
2018-02-14T08:28:29.830Z,60.76
2018-02-14T08:30:59.116Z,60.56
2018-02-14T08:33:27.872Z,60.95
2018-02-14T08:35:56.394Z,61.43
2018-02-14T08:38:25.031Z,60.44
2018-02-14T08:40:54.457Z,59.70
2018-02-14T08:43:23.783Z,58.58
2018-02-14T08:45:52.635Z,58.64
2018-02-14T08:48:22.230Z,58.94
2018-02-14T08:50:51.828Z,57.77
2018-02-14T08:53:21.082Z,58.33
2018-02-14T08:55:49.949Z,58.64
2018-02-14T08:58:19.029Z,58.23
2018-02-14T09:00:48.727Z,58.56
2018-02-14T09:03:19.476Z,58.61
2018-02-14T09:05:47.930Z,58.91
2018-02-14T09:08:18.481Z,59.25
2018-02-14T09:10:48.161Z,58.94
2018-02-14T09:13:17.584Z,59.16
2018-02-14T09:15:46.309Z,59.02
2018-02-14T09:18:15.090Z,58.64
2018-02-14T09:20:43.767Z,58.63
2018-02-14T09:23:12.837Z,58.72
2018-02-14T09:25:41.418Z,59.09
2018-02-14T09:28:11.141Z,58.06
2018-02-14T09:30:39.931Z,58.45
2018-02-14T09:33:08.825Z,57.33
2018-02-14T09:35:38.038Z,56.56
2018-02-14T09:38:07.542Z,57.05
2018-02-14T09:40:36.226Z,54.84
2018-02-14T09:43:07.842Z,51.56
2018-02-14T09:45:37.181Z,47.14
2018-02-14T09:48:06.220Z,44.57
2018-02-14T09:50:35.327Z,43.33
2018-02-14T09:53:04.458Z,42.62
2018-02-14T09:55:37.599Z,47.13
2018-02-14T09:58:06.191Z,48.79
2018-02-14T10:00:36.021Z,52.41
2018-02-14T10:03:05.041Z,53.00
2018-02-14T10:05:33.998Z,54.13
2018-02-14T10:08:03.562Z,54.33
2018-02-14T10:10:32.634Z,54.73
2018-02-14T10:13:01.157Z,53.49
2018-02-14T10:15:30.715Z,52.83
2018-02-14T10:18:01.039Z,53.70
2018-02-14T10:20:30.613Z,53.54
2018-02-14T10:22:59.530Z,53.33
2018-02-14T10:25:27.910Z,52.93
2018-02-14T10:27:57.017Z,52.85
2018-02-14T10:30:26.606Z,52.88
2018-02-14T10:32:55.413Z,53.20
2018-02-14T10:35:24.974Z,52.79
2018-02-14T10:37:54.509Z,53.01
2018-02-14T10:40:24.130Z,53.12
2018-02-14T10:42:52.543Z,52.86
2018-02-14T10:45:22.204Z,52.21
2018-02-14T10:47:52.343Z,52.25
2018-02-14T10:50:21.492Z,52.76
2018-02-14T10:52:50.391Z,52.29
2018-02-14T10:55:19.583Z,51.02
2018-02-14T10:57:48.880Z,50.91
2018-02-14T11:00:23.176Z,50.82
2018-02-14T11:02:58.519Z,50.91
2018-02-14T11:05:34.016Z,50.92
2018-02-14T11:08:03.517Z,50.69
2018-02-14T11:10:33.542Z,49.66
2018-02-14T11:13:02.323Z,48.95
2018-02-14T11:15:31.294Z,49.45
2018-02-14T11:18:00.254Z,49.41
2018-02-14T11:20:29.223Z,49.31
2018-02-14T11:22:59.174Z,49.22
2018-02-14T11:25:29.215Z,48.00
2018-02-14T11:27:58.816Z,48.76
2018-02-14T11:30:29.494Z,49.07
2018-02-14T11:32:58.229Z,48.87
2018-02-14T11:35:27.019Z,49.96
2018-02-14T11:37:56.927Z,48.37
2018-02-14T11:40:25.380Z,47.11
2018-02-14T11:42:54.477Z,47.66
2018-02-14T11:45:23.494Z,49.32
2018-02-14T11:47:52.184Z,50.27
2018-02-14T11:50:20.969Z,50.07
2018-02-14T11:52:49.647Z,49.32
2018-02-14T11:55:18.567Z,49.82
2018-02-14T11:57:47.509Z,50.37
2018-02-14T12:00:16.178Z,49.56
2018-02-14T12:02:45.692Z,49.46
2018-02-14T12:05:15.408Z,48.49
2018-02-14T12:07:43.946Z,47.68
2018-02-14T12:10:12.551Z,48.01
2018-02-14T12:12:42.608Z,48.21
2018-02-14T12:15:12.155Z,46.16
2018-02-14T12:17:41.942Z,43.61
2018-02-14T12:20:11.811Z,41.51
2018-02-14T12:22:42.398Z,39.44
2018-02-14T12:25:11.212Z,38.39
2018-02-14T12:27:39.866Z,39.37
2018-02-14T12:30:09.292Z,40.31
2018-02-14T12:32:38.414Z,38.99
2018-02-14T12:35:07.004Z,39.49
2018-02-14T12:37:36.109Z,40.20
2018-02-14T12:40:05.713Z,40.73
2018-02-14T12:42:34.841Z,43.50
2018-02-14T12:45:04.686Z,42.81
2018-02-14T12:47:34.037Z,42.89
2018-02-14T12:50:03.690Z,43.15
2018-02-14T12:52:33.340Z,43.37
2018-02-14T12:55:01.943Z,45.01
2018-02-14T12:57:31.255Z,44.56
2018-02-14T13:00:00.745Z,44.52
2018-02-14T13:02:30.075Z,42.75
2018-02-14T13:04:58.713Z,42.62
2018-02-14T13:07:27.190Z,41.98
2018-02-14T13:09:56.576Z,42.13
2018-02-14T13:12:25.529Z,42.17
2018-02-14T13:14:54.938Z,42.82
2018-02-14T13:17:24.501Z,41.15
2018-02-14T13:19:53.434Z,39.17
2018-02-14T13:22:23.060Z,39.32
2018-02-14T13:24:54.001Z,36.99
2018-02-14T13:27:23.376Z,36.35
2018-02-14T13:29:54.238Z,35.50
2018-02-14T13:32:23.295Z,35.86
2018-02-14T13:34:52.882Z,36.29
2018-02-14T13:37:21.954Z,36.61
2018-02-14T13:39:50.962Z,37.54
2018-02-14T13:42:19.853Z,38.33
2018-02-14T13:44:49.760Z,37.07
2018-02-14T13:47:18.641Z,36.39
2018-02-14T13:49:49.270Z,35.90
2018-02-14T13:52:18.387Z,37.97
2018-02-14T13:54:47.305Z,39.68
2018-02-14T13:57:17.377Z,40.78
2018-02-14T13:59:46.532Z,41.87
2018-02-14T14:02:16.279Z,41.70
2018-02-14T14:04:46.218Z,42.07
2018-02-14T14:07:15.018Z,41.52
2018-02-14T14:09:43.949Z,42.98
2018-02-14T14:12:12.727Z,42.74
2018-02-14T14:14:41.234Z,41.87
2018-02-14T14:17:10.333Z,40.58
2018-02-14T14:19:39.027Z,40.40
2018-02-14T14:22:08.024Z,40.14
2018-02-14T14:24:37.661Z,40.21
2018-02-14T14:27:06.610Z,38.98
2018-02-14T14:29:36.102Z,40.10
2018-02-14T14:32:05.010Z,41.71
2018-02-14T14:34:33.803Z,42.66
2018-02-14T14:37:02.405Z,43.02
2018-02-14T14:39:31.409Z,43.59
2018-02-14T14:42:01.474Z,43.84
2018-02-14T14:44:31.711Z,44.60
2018-02-14T14:47:00.708Z,43.37
2018-02-14T14:49:29.285Z,42.09
2018-02-14T14:51:58.781Z,42.81
2018-02-14T14:54:27.610Z,42.93
2018-02-14T14:56:56.242Z,42.87
2018-02-14T14:59:24.878Z,42.07
2018-02-14T15:01:53.767Z,41.95
2018-02-14T15:04:23.157Z,41.32
2018-02-14T15:06:52.799Z,42.18
2018-02-14T15:09:21.544Z,42.71
2018-02-14T15:11:50.335Z,41.33
2018-02-14T15:14:19.036Z,41.23
2018-02-14T15:16:47.874Z,42.82
2018-02-14T15:19:17.274Z,43.83
2018-02-14T15:21:46.043Z,43.84
2018-02-14T15:24:14.953Z,43.95
2018-02-14T15:26:44.160Z,43.96
2018-02-14T15:29:12.755Z,44.75
2018-02-14T15:31:41.618Z,45.49
2018-02-14T15:34:10.235Z,44.94
2018-02-14T15:36:39.572Z,45.61
2018-02-14T15:39:08.703Z,45.24
2018-02-14T15:41:37.560Z,45.72
2018-02-14T15:44:06.629Z,47.54
2018-02-14T15:46:35.429Z,46.43
2018-02-14T15:49:05.188Z,46.76
2018-02-14T15:51:35.761Z,47.08
2018-02-14T15:54:05.218Z,46.81
2018-02-14T15:56:33.862Z,47.01
2018-02-14T15:59:02.599Z,47.11
2018-02-14T16:01:31.692Z,48.18
2018-02-14T16:04:00.649Z,47.86
2018-02-14T16:06:30.368Z,48.24
2018-02-14T16:08:58.909Z,47.99
2018-02-14T16:11:28.034Z,48.17
2018-02-14T16:13:56.839Z,47.92
2018-02-14T16:16:25.916Z,48.52
2018-02-14T16:18:54.555Z,49.17
2018-02-14T16:21:23.118Z,49.61
2018-02-14T16:23:52.014Z,49.46
2018-02-14T16:26:21.518Z,49.30
2018-02-14T16:28:50.921Z,49.97
2018-02-14T16:31:19.955Z,49.62
2018-02-14T16:33:48.844Z,50.95
2018-02-14T16:36:17.461Z,50.40
2018-02-14T16:38:45.935Z,51.24
2018-02-14T16:41:14.598Z,51.67
2018-02-14T16:43:43.288Z,51.39
2018-02-14T16:46:12.190Z,51.53
2018-02-14T16:48:41.164Z,51.68
2018-02-14T16:51:10.076Z,51.75
2018-02-14T16:53:39.071Z,52.14
2018-02-14T16:56:07.653Z,52.27
2018-02-14T16:58:36.660Z,53.14
2018-02-14T17:01:05.340Z,52.64
2018-02-14T17:03:33.819Z,52.55
2018-02-14T17:06:02.688Z,52.40
2018-02-14T17:08:31.934Z,52.48
2018-02-14T17:11:02.158Z,52.98
2018-02-14T17:13:31.295Z,53.15
2018-02-14T17:16:00.748Z,54.49
2018-02-14T17:18:29.900Z,56.30
2018-02-14T17:20:59.068Z,57.06
2018-02-14T17:23:28.523Z,57.48
2018-02-14T17:25:58.746Z,58.19
2018-02-14T17:28:29.607Z,58.86
2018-02-14T17:30:58.908Z,58.60
2018-02-14T17:33:28.556Z,59.50
2018-02-14T17:35:57.558Z,60.00
2018-02-14T17:38:26.526Z,59.75
2018-02-14T17:40:55.974Z,60.71
2018-02-14T17:43:25.652Z,61.50
2018-02-14T17:45:54.337Z,60.25
2018-02-14T17:48:24.079Z,61.14
2018-02-14T17:50:52.990Z,61.58
2018-02-14T17:53:22.936Z,61.31
2018-02-14T17:55:51.488Z,61.07
2018-02-14T17:58:20.958Z,60.97
2018-02-14T18:00:49.501Z,62.71
2018-02-14T18:03:18.306Z,62.01
2018-02-14T18:05:47.488Z,62.14
2018-02-14T18:08:16.394Z,62.25
2018-02-14T18:10:46.504Z,61.58
2018-02-14T18:13:16.022Z,62.31
2018-02-14T18:15:45.695Z,63.42
2018-02-14T18:18:15.186Z,62.80
2018-02-14T18:20:45.038Z,63.12
2018-02-14T18:23:14.445Z,63.64
2018-02-14T18:25:44.357Z,62.74
2018-02-14T18:28:14.253Z,62.21
2018-02-14T18:30:43.576Z,63.12
2018-02-14T18:33:12.977Z,61.90
2018-02-14T18:35:41.814Z,60.77
2018-02-14T18:38:10.465Z,60.73
2018-02-14T18:40:40.538Z,62.22
2018-02-14T18:43:09.493Z,63.23
2018-02-14T18:45:38.546Z,58.27
2018-02-14T18:48:07.546Z,60.00
2018-02-14T18:50:36.357Z,58.11
2018-02-14T18:53:06.455Z,55.07
2018-02-14T18:55:35.949Z,54.49
2018-02-14T18:58:05.242Z,53.97
2018-02-14T19:00:33.890Z,53.41
2018-02-14T19:03:03.721Z,53.04
2018-02-14T19:05:32.718Z,53.14
2018-02-14T19:13:00.050Z,52.69
2018-02-14T19:15:32.012Z,52.56
2018-02-14T19:18:00.624Z,52.78
2018-02-14T19:20:29.573Z,52.52
2018-02-14T19:22:58.815Z,52.45
2018-02-14T19:25:28.002Z,52.64
2018-02-14T19:27:56.612Z,52.33
2018-02-14T19:30:25.752Z,52.39
2018-02-14T19:32:54.506Z,52.52
2018-02-14T19:35:24.247Z,52.51
2018-02-14T19:37:52.918Z,52.37
2018-02-14T19:40:21.967Z,52.46
2018-02-14T19:42:50.926Z,52.40
2018-02-14T19:45:19.876Z,52.69
2018-02-14T19:47:50.445Z,52.63
2018-02-14T19:50:19.081Z,52.81
2018-02-14T19:52:49.167Z,53.00
2018-02-14T19:55:18.108Z,52.54
2018-02-14T19:57:46.886Z,52.72
2018-02-14T20:00:15.692Z,52.71
2018-02-14T20:02:44.161Z,53.14
2018-02-14T20:05:13.533Z,53.05
2018-02-14T20:07:42.255Z,53.54
2018-02-14T20:10:10.786Z,53.52
2018-02-14T20:12:39.399Z,53.60
2018-02-14T20:15:09.203Z,54.00
2018-02-14T20:17:39.924Z,54.06
2018-02-14T20:20:08.715Z,53.97
2018-02-14T20:22:38.021Z,54.11
2018-02-14T20:25:06.617Z,54.39
2018-02-14T20:27:36.362Z,54.42
2018-02-14T20:30:05.923Z,54.63
2018-02-14T20:32:35.524Z,54.54
2018-02-14T20:35:05.120Z,55.06
2018-02-14T20:37:34.570Z,55.00
2018-02-14T20:40:03.027Z,55.26
2018-02-14T20:42:32.571Z,55.46
2018-02-14T20:45:02.952Z,55.48
2018-02-14T20:47:32.288Z,55.55
2018-02-14T20:50:01.286Z,55.74
2018-02-14T20:52:30.159Z,55.78
2018-02-14T20:54:58.715Z,55.94
2018-02-14T20:57:27.551Z,55.92
2018-02-14T20:59:57.196Z,56.26
2018-02-14T21:02:26.937Z,56.19
2018-02-14T21:04:55.617Z,56.48
2018-02-14T21:07:24.193Z,56.50
2018-02-14T21:09:53.744Z,56.58
2018-02-14T21:12:22.294Z,57.01
2018-02-14T21:14:50.723Z,57.82
2018-02-14T21:17:20.621Z,57.95
2018-02-14T21:19:49.203Z,57.04
2018-02-14T21:22:17.876Z,57.32
2018-02-14T21:24:47.639Z,57.61
2018-02-14T21:27:18.131Z,57.62
2018-02-14T21:29:46.985Z,57.92
2018-02-14T21:32:15.683Z,57.93
2018-02-14T21:34:44.166Z,58.11
2018-02-14T21:37:12.815Z,58.15
2018-02-14T21:39:42.092Z,58.28
2018-02-14T21:42:10.771Z,58.52
2018-02-14T21:44:40.136Z,58.56
2018-02-14T21:47:08.856Z,58.69
2018-02-14T21:49:37.492Z,58.58
2018-02-14T21:52:07.003Z,58.51
2018-02-14T21:54:36.496Z,58.96
2018-02-14T21:57:05.313Z,59.23
2018-02-14T21:59:35.078Z,59.21
2018-02-14T22:02:04.974Z,59.27
2018-02-14T22:04:35.292Z,59.46
2018-02-14T22:07:04.996Z,59.58
2018-02-14T22:09:33.606Z,59.84
2018-02-14T22:12:02.383Z,59.52
2018-02-14T22:14:31.636Z,59.76
2018-02-14T22:17:00.385Z,59.67
2018-02-14T22:19:29.310Z,59.71
2018-02-14T22:21:57.851Z,59.82
2018-02-14T22:24:26.333Z,59.64
2018-02-14T22:26:54.697Z,59.89
2018-02-14T22:29:24.650Z,59.99
2018-02-14T22:31:53.798Z,59.95
2018-02-14T22:34:23.110Z,59.63
2018-02-14T22:36:51.502Z,60.05
2018-02-14T22:39:20.663Z,60.25
2018-02-14T22:41:49.264Z,59.82
2018-02-14T22:44:18.743Z,60.04
2018-02-14T22:46:47.078Z,59.93
2018-02-14T22:49:15.641Z,60.05
2018-02-14T22:51:45.141Z,60.06
2018-02-14T22:54:14.257Z,60.11
2018-02-14T22:56:42.808Z,60.23
2018-02-14T22:59:12.018Z,60.05
2018-02-14T23:01:42.426Z,60.13
2018-02-14T23:04:11.753Z,60.18
2018-02-14T23:06:40.299Z,59.87
2018-02-14T23:09:08.862Z,60.17
2018-02-14T23:11:37.614Z,60.04
2018-02-14T23:14:06.092Z,59.96
2018-02-14T23:16:34.928Z,60.21
2018-02-14T23:19:03.413Z,60.01
2018-02-14T23:21:32.561Z,60.02
2018-02-14T23:24:00.942Z,60.01
2018-02-14T23:26:30.163Z,60.27
2018-02-14T23:28:59.489Z,60.00
2018-02-14T23:31:28.125Z,60.12
2018-02-14T23:33:58.249Z,59.91
2018-02-14T23:36:28.506Z,60.16
2018-02-14T23:38:57.134Z,60.41
2018-02-14T23:41:25.472Z,60.30
2018-02-14T23:43:54.605Z,60.29
2018-02-14T23:46:23.311Z,60.56
2018-02-14T23:48:51.680Z,60.56
2018-02-14T23:51:20.048Z,60.59
2018-02-14T23:53:48.679Z,60.68
2018-02-14T23:56:17.801Z,60.90
2018-02-14T23:58:46.218Z,60.74
